createdAt,value
2019-01-16T19:30:13.865Z,986.96
2019-01-16T19:31:15.161Z,986.89
2019-01-16T19:32:15.163Z,986.89
2019-01-16T19:33:21.127Z,986.84
2019-01-16T19:34:22.831Z,986.73
2019-01-16T19:35:21.005Z,986.77
2019-01-16T19:36:13.470Z,986.73
2019-01-16T19:37:21.100Z,986.77
2019-01-16T19:38:21.160Z,986.72
2019-01-16T19:39:22.241Z,986.70
2019-01-16T19:40:22.601Z,986.65
2019-01-16T19:41:16.154Z,986.71
2019-01-16T19:42:15.069Z,986.46
2019-01-16T19:44:29.530Z,986.66
2019-01-16T19:45:29.653Z,986.71
2019-01-16T19:46:31.208Z,986.61
2019-01-16T19:47:31.210Z,986.66
2019-01-16T19:48:37.178Z,986.60
2019-01-16T19:49:31.377Z,986.61
2019-01-16T19:50:32.345Z,986.60
2019-01-16T19:51:31.236Z,986.64
2019-01-16T19:52:31.254Z,986.56
2019-01-16T19:53:29.440Z,986.55
2019-01-16T19:54:38.507Z,986.54
2019-01-16T19:55:31.687Z,986.45
2019-01-16T19:57:40.893Z,986.26
2019-01-16T19:58:48.227Z,986.43
2019-01-16T19:59:42.397Z,986.38
2019-01-16T20:00:42.395Z,986.39
2019-01-16T20:01:40.671Z,986.35
2019-01-16T20:02:42.387Z,986.37
2019-01-16T20:03:42.403Z,986.30
2019-01-16T20:04:42.364Z,986.36
2019-01-16T20:05:42.361Z,986.21
2019-01-16T20:06:42.380Z,986.29
2019-01-16T20:07:42.387Z,986.30
2019-01-16T20:08:42.664Z,986.19
2019-01-16T20:09:42.361Z,986.25
2019-01-16T20:10:42.362Z,986.23
2019-01-16T20:11:42.376Z,986.12
2019-01-16T20:12:42.371Z,986.19
2019-01-16T20:13:42.371Z,986.19
2019-01-16T20:14:42.372Z,986.11
2019-01-16T20:15:42.466Z,986.12
2019-01-16T20:16:42.410Z,986.19
2019-01-16T20:17:42.665Z,986.06
2019-01-16T20:19:52.204Z,985.99
2019-01-16T20:22:01.625Z,986.17
2019-01-16T20:24:11.936Z,986.05
2019-01-16T20:26:23.255Z,985.93
2019-01-16T20:28:33.562Z,985.93
2019-01-16T20:30:59.336Z,985.88
2019-01-16T20:33:10.087Z,985.99
2019-01-16T20:35:36.138Z,985.95
2019-01-16T20:37:46.410Z,985.97
2019-01-16T20:40:09.005Z,985.90
2019-01-16T20:42:19.120Z,985.80
2019-01-16T20:44:28.422Z,985.68
2019-01-16T20:46:39.401Z,985.81
2019-01-16T20:50:46.195Z,985.80
2019-01-16T20:52:58.068Z,985.67
2019-01-16T20:55:09.209Z,985.73
2019-01-16T20:56:10.621Z,985.55
2019-01-16T20:57:10.938Z,985.72
2019-01-16T20:58:10.630Z,985.65
2019-01-16T20:59:10.176Z,985.59
2019-01-16T21:00:12.330Z,985.70
2019-01-16T21:01:12.549Z,985.64
2019-01-16T21:02:10.863Z,985.59
2019-01-16T21:04:25.674Z,985.39
2019-01-16T21:06:35.431Z,985.35
2019-01-16T21:07:37.099Z,985.47
2019-01-16T21:08:37.316Z,985.53
2019-01-16T21:09:37.445Z,985.50
2019-01-16T21:12:05.906Z,985.58
2019-01-16T21:14:06.681Z,985.47
2019-01-16T21:15:08.436Z,985.60
2019-01-16T21:16:08.428Z,985.47
2019-01-16T21:17:14.174Z,985.58
2019-01-16T21:18:08.862Z,985.57
2019-01-16T21:20:17.001Z,985.45
2019-01-16T21:22:42.522Z,985.54
2019-01-16T21:23:39.826Z,985.48
2019-01-16T21:24:38.828Z,985.42
2019-01-16T21:25:38.806Z,985.40
2019-01-16T21:26:38.838Z,985.33
2019-01-16T21:27:38.921Z,985.41
2019-01-16T21:28:38.809Z,985.47
2019-01-16T21:29:40.018Z,985.36
2019-01-16T21:30:38.848Z,984.99
2019-01-16T21:31:38.819Z,985.34
2019-01-16T21:33:58.332Z,985.45
2019-01-16T21:35:00.010Z,985.21
2019-01-16T21:35:59.981Z,985.35
2019-01-16T21:36:58.219Z,985.28
2019-01-16T21:38:00.060Z,985.27
2019-01-16T21:38:58.127Z,985.33
2019-01-16T21:39:58.196Z,985.29
2019-01-16T21:42:14.263Z,985.27
2019-01-16T21:43:16.042Z,985.24
2019-01-16T21:44:15.985Z,985.23
2019-01-16T21:45:15.819Z,985.25
2019-01-16T21:48:33.899Z,985.38
2019-01-16T21:49:22.067Z,985.41
2019-01-16T21:50:12.600Z,985.21
2019-01-16T21:51:08.450Z,985.33
2019-01-16T21:52:14.650Z,985.40
2019-01-16T21:53:08.919Z,985.37
2019-01-16T21:54:16.090Z,985.22
2019-01-16T21:56:17.429Z,985.23
2019-01-16T21:57:18.989Z,985.26
2019-01-16T21:58:18.928Z,985.33
2019-01-16T21:59:18.894Z,985.23
2019-01-16T22:00:19.949Z,985.25
2019-01-16T22:01:18.963Z,985.23
2019-01-16T22:02:18.933Z,985.32
2019-01-16T22:03:19.908Z,985.22
2019-01-16T22:04:18.879Z,985.12
2019-01-16T22:05:18.879Z,985.12
2019-01-16T22:06:19.020Z,985.14
2019-01-16T22:07:19.208Z,985.13
2019-01-16T22:08:18.889Z,985.17
2019-01-16T22:09:18.882Z,985.23
2019-01-16T22:10:17.883Z,985.22
2019-01-16T22:11:19.012Z,985.17
2019-01-16T22:12:19.103Z,985.04
2019-01-16T22:13:18.918Z,984.84
2019-01-16T22:14:25.649Z,984.86
2019-01-16T22:16:27.378Z,984.94
2019-01-16T22:18:36.600Z,984.95
2019-01-16T22:20:57.740Z,984.85
2019-01-16T22:21:59.392Z,984.95
2019-01-16T22:22:58.189Z,984.84
2019-01-16T22:23:59.401Z,984.79
2019-01-16T22:24:59.505Z,984.85
2019-01-16T22:26:05.297Z,984.84
2019-01-16T22:27:48.502Z,984.89
2019-01-16T22:29:58.778Z,984.83
2019-01-16T22:31:00.424Z,984.65
2019-01-16T22:32:00.724Z,984.71
2019-01-16T22:33:00.326Z,984.69
2019-01-16T22:34:00.754Z,984.87
2019-01-16T22:35:00.351Z,984.78
2019-01-16T22:36:00.369Z,984.91
2019-01-16T22:37:00.317Z,984.82
2019-01-16T22:38:00.323Z,984.91
2019-01-16T22:39:00.336Z,984.85
2019-01-16T22:40:01.594Z,984.84
2019-01-16T22:41:06.726Z,984.71
2019-01-16T22:43:09.218Z,984.78
2019-01-16T22:44:58.546Z,984.70
2019-01-16T22:45:58.514Z,984.67
2019-01-16T22:47:00.277Z,984.70
2019-01-16T22:48:07.400Z,984.73
2019-01-16T22:49:06.160Z,984.70
2019-01-16T22:50:07.610Z,984.70
2019-01-16T22:51:06.197Z,984.58
2019-01-16T22:52:08.000Z,984.82
2019-01-16T22:53:06.138Z,984.76
2019-01-16T22:54:06.045Z,984.85
2019-01-16T22:55:00.221Z,984.81
2019-01-16T22:56:00.062Z,984.76
2019-01-16T22:57:08.154Z,984.59
2019-01-16T22:58:00.118Z,984.69
2019-01-16T22:59:00.064Z,984.84
2019-01-16T23:00:00.084Z,984.84
2019-01-16T23:01:00.078Z,984.83
2019-01-16T23:02:00.044Z,984.80
2019-01-16T23:03:00.018Z,984.66
2019-01-16T23:04:00.016Z,984.72
2019-01-16T23:05:00.010Z,984.78
2019-01-16T23:06:00.012Z,984.53
2019-01-16T23:07:00.026Z,984.65
2019-01-16T23:08:00.006Z,984.55
2019-01-16T23:09:00.026Z,984.71
2019-01-16T23:09:59.999Z,984.75
2019-01-16T23:11:00.003Z,984.58
2019-01-16T23:12:00.018Z,984.65
2019-01-16T23:13:00.096Z,984.59
2019-01-16T23:14:00.017Z,984.53
2019-01-16T23:14:58.231Z,984.56
2019-01-16T23:16:05.878Z,984.54
2019-01-16T23:17:00.098Z,984.58
2019-01-16T23:18:00.089Z,984.51
2019-01-16T23:19:00.047Z,984.53
2019-01-16T23:20:00.130Z,984.54
2019-01-16T23:21:05.893Z,984.52
2019-01-16T23:22:00.181Z,984.48
2019-01-16T23:23:00.144Z,984.53
2019-01-16T23:25:08.575Z,984.50
2019-01-16T23:26:10.185Z,984.54
2019-01-16T23:27:17.194Z,984.60
2019-01-16T23:28:17.075Z,984.41
2019-01-16T23:29:10.251Z,984.61
2019-01-16T23:30:10.353Z,984.66
2019-01-16T23:31:10.116Z,984.64
2019-01-16T23:32:17.464Z,984.72
2019-01-16T23:33:10.348Z,984.76
2019-01-16T23:34:10.306Z,984.69
2019-01-16T23:35:10.165Z,984.63
2019-01-16T23:36:10.176Z,984.64
2019-01-16T23:37:10.169Z,984.68
2019-01-16T23:38:09.285Z,984.61
2019-01-16T23:39:10.151Z,984.50
2019-01-16T23:40:15.953Z,984.65
2019-01-16T23:41:09.758Z,984.62
2019-01-16T23:42:09.782Z,984.69
2019-01-16T23:43:09.756Z,984.75
2019-01-16T23:44:15.852Z,984.77
2019-01-16T23:45:09.874Z,984.61
2019-01-16T23:46:11.799Z,984.69
2019-01-16T23:47:09.901Z,984.67
2019-01-16T23:48:09.713Z,984.71
2019-01-16T23:49:09.731Z,984.65
2019-01-16T23:50:09.752Z,984.62
2019-01-16T23:51:09.724Z,984.62
2019-01-16T23:52:09.757Z,984.64
2019-01-16T23:53:09.731Z,984.53
2019-01-16T23:54:09.729Z,984.66
2019-01-16T23:55:09.710Z,984.46
2019-01-16T23:56:15.732Z,984.49
2019-01-16T23:57:09.821Z,984.49
2019-01-16T23:58:09.815Z,984.55
2019-01-16T23:59:09.803Z,984.53
